Aeroporto :
LOGIN :

Iscrizione | Disclaimer

   EN    FR    IT 

 










Sommario :    VFR   VFR Marginale   IFR   IFR Intensivo   IFR Molto Intensivo
Visibilità : 
Base nubi : 
>= 8 km
>= 3000ft
5 / 8 km
1000 / 3000 ft
1500m / 5 km
500 / 1000 ft
800 / 1500m
200 / 500 ft
< 800m
< 200 ft
Simboli :   Temporali  Nebbia  Neve Forte  Precipitazioni Forti  Vento > 20 kt
SIGMETs :   Varie  Temporali  Ghiacco  Turbolenza  Onda orograficha  Ceneri Vulcaniche






- Altitudine del aeroporto : 26 ft
- Codice IATA : GLA


EGPF - Glasgow

ULTIMO METAR :
  • 201620Z AUTO 07009KT 9999 OVC033 07/04 Q1008

METARs OBSOLETI :
  • 201550Z AUTO 07007KT 9999 BKN034 07/04 Q1008
  • 201520Z AUTO 08009KT 9999 FEW034 07/04 Q1008
  • 201450Z AUTO 07011KT 9999 SCT031 06/04 Q1007
  • 201420Z AUTO 06010KT 9999 BKN029 06/04 Q1008
  • 201350Z AUTO 06010KT 9999 BKN026 06/04 Q1008

TAF TAF EGPF
Valido dal 20 a 12 ore il 21 a 12 ore UTC


201100Z 2012/2112 06009KT 9999 SCT040
TEMPO 2012/2014 7000 -RA BKN014
ATIS : +44 141 887 7449



MetMap, La meteo Aeronautica in un colpo d'occhio ! - Copyright ORBIFLY Dicembre 2007 - Disclaimer

ORBIFLY MET'MAP TEAM :

Programmazione e sviluppo : Alexandra Zaïnal
Concezione e sviluppo : Baudouin d'Aumeries
Co-Programmazione e sviluppo : Marc-Olivier Méhu
Supporto tecnico e logistico : Manuel Goepfert
Aiuto per la traduzione : Arnaldo La Scala

Contatto : metmap@orbifly.com




FONTI E CREDITI :

   NOAA